createdAt,value
2023-03-31T00:01:00.998Z,84.85
2023-03-31T00:04:05.629Z,85.02
2023-03-31T00:07:08.528Z,86.70
2023-03-31T00:13:19.408Z,88.54
2023-03-31T00:16:22.404Z,90.09
2023-03-31T00:19:25.133Z,91.98
2023-03-31T00:22:27.920Z,92.26
2023-03-31T00:25:30.764Z,92.74
2023-03-31T00:28:33.878Z,93.58
2023-03-31T00:31:36.823Z,94.12
2023-03-31T00:34:39.694Z,94.25
2023-03-31T00:37:43.516Z,93.75
2023-03-31T00:40:47.439Z,93.43
2023-03-31T00:44:19.120Z,94.50
2023-03-31T00:47:23.273Z,93.66
2023-03-31T00:50:30.111Z,93.73
2023-03-31T00:53:35.034Z,93.98
2023-03-31T00:56:43.919Z,93.02
2023-03-31T00:59:53.648Z,93.89
2023-03-31T01:03:00.007Z,93.41
2023-03-31T01:06:06.684Z,92.72
2023-03-31T01:09:10.067Z,92.76
2023-03-31T01:12:16.034Z,93.12
2023-03-31T01:15:20.050Z,92.51
2023-03-31T01:18:23.946Z,91.56
2023-03-31T01:21:39.260Z,91.93
2023-03-31T01:25:01.859Z,91.36
2023-03-31T01:28:16.649Z,91.73
2023-03-31T01:31:38.141Z,90.84
2023-03-31T01:34:57.830Z,91.72
2023-03-31T01:38:19.512Z,91.76
2023-03-31T01:41:31.089Z,91.53
2023-03-31T01:44:39.746Z,91.00
2023-03-31T01:47:54.727Z,91.91
2023-03-31T01:51:07.807Z,92.24
2023-03-31T01:54:29.435Z,91.67
2023-03-31T01:57:39.712Z,91.59
2023-03-31T02:00:52.098Z,91.15
2023-03-31T02:04:07.400Z,90.63
2023-03-31T02:07:19.356Z,91.61
2023-03-31T02:10:24.355Z,90.98
2023-03-31T02:13:29.361Z,91.43
2023-03-31T02:16:34.968Z,91.88
2023-03-31T02:19:41.289Z,91.63
2023-03-31T02:22:48.973Z,91.48
2023-03-31T02:25:54.327Z,90.98
2023-03-31T02:28:58.742Z,90.83
2023-03-31T02:32:26.662Z,91.56
2023-03-31T02:35:29.637Z,91.84
2023-03-31T02:38:37.188Z,91.47
2023-03-31T02:41:41.490Z,92.00
2023-03-31T02:44:44.429Z,91.78
2023-03-31T02:47:47.294Z,92.33
2023-03-31T02:50:59.668Z,91.59
2023-03-31T02:54:20.757Z,92.32
2023-03-31T02:58:07.282Z,92.94
2023-03-31T03:01:27.664Z,92.67
2023-03-31T03:04:43.352Z,92.47
2023-03-31T03:08:04.122Z,91.96
2023-03-31T03:11:26.304Z,91.47
2023-03-31T03:14:40.884Z,92.07
2023-03-31T03:17:48.416Z,91.94
2023-03-31T03:20:51.286Z,92.64
2023-03-31T03:23:54.987Z,92.57
2023-03-31T03:26:57.903Z,92.85
2023-03-31T03:30:02.810Z,92.53
2023-03-31T03:33:07.094Z,93.58
2023-03-31T03:36:10.831Z,93.54
2023-03-31T03:39:13.805Z,93.66
2023-03-31T03:42:17.079Z,93.88
2023-03-31T03:45:19.795Z,94.52
2023-03-31T03:48:22.541Z,94.59
2023-03-31T03:51:25.630Z,94.29
2023-03-31T03:54:28.443Z,94.21
2023-03-31T03:57:31.354Z,94.08
2023-03-31T04:00:34.402Z,94.15
2023-03-31T04:03:37.218Z,94.28
2023-03-31T04:06:40.065Z,93.85
2023-03-31T04:09:43.143Z,93.34
2023-03-31T04:12:45.961Z,93.47
2023-03-31T04:15:48.870Z,93.19
2023-03-31T04:18:56.929Z,94.06
2023-03-31T04:22:02.986Z,94.30
2023-03-31T04:25:15.131Z,94.33
2023-03-31T04:28:18.094Z,94.99
2023-03-31T04:31:25.695Z,94.83
2023-03-31T04:34:35.397Z,94.72
2023-03-31T04:37:39.063Z,93.74
2023-03-31T04:40:41.899Z,92.21
2023-03-31T04:43:44.968Z,91.35
2023-03-31T04:46:47.738Z,90.04
2023-03-31T04:49:50.527Z,89.08
2023-03-31T04:52:53.353Z,88.10
2023-03-31T04:55:56.445Z,87.96
2023-03-31T04:58:59.167Z,87.20
2023-03-31T05:02:02.073Z,87.28
2023-03-31T05:05:05.190Z,87.14
2023-03-31T05:08:08.241Z,86.21
2023-03-31T05:11:11.507Z,86.29
2023-03-31T05:14:14.349Z,86.29
2023-03-31T05:17:18.057Z,85.97
2023-03-31T05:20:21.780Z,86.10
2023-03-31T05:23:24.525Z,85.82
2023-03-31T05:26:27.336Z,84.87
2023-03-31T05:29:31.299Z,83.86
2023-03-31T05:32:34.244Z,83.28
2023-03-31T05:35:37.130Z,83.39
2023-03-31T05:38:40.946Z,82.36
2023-03-31T05:41:43.827Z,81.23
2023-03-31T05:44:46.666Z,79.48
2023-03-31T05:47:49.478Z,78.68
2023-03-31T05:50:52.491Z,77.77
2023-03-31T05:53:55.406Z,76.52
2023-03-31T05:56:58.649Z,75.84
2023-03-31T06:00:01.506Z,75.04
2023-03-31T06:03:11.639Z,74.46
2023-03-31T06:06:18.487Z,74.11
2023-03-31T06:09:22.138Z,73.64
2023-03-31T06:12:25.215Z,73.84
2023-03-31T06:15:28.197Z,73.17
2023-03-31T06:18:33.081Z,73.56
2023-03-31T06:21:36.124Z,73.03
2023-03-31T06:24:38.955Z,72.56
2023-03-31T06:27:41.670Z,72.38
2023-03-31T06:30:44.585Z,69.47
2023-03-31T06:33:48.276Z,70.06
2023-03-31T06:36:51.146Z,69.52
2023-03-31T06:39:54.007Z,68.11
2023-03-31T06:42:56.871Z,67.66
2023-03-31T06:45:59.796Z,66.63
2023-03-31T06:49:04.430Z,63.68
2023-03-31T06:52:07.691Z,63.50
2023-03-31T06:55:10.620Z,63.15
2023-03-31T06:58:14.534Z,64.65
2023-03-31T07:01:21.168Z,63.96
2023-03-31T07:04:25.554Z,62.92
2023-03-31T07:07:32.508Z,62.86
2023-03-31T07:10:35.685Z,64.11
2023-03-31T07:13:38.731Z,64.87
2023-03-31T07:16:41.791Z,60.00
2023-03-31T07:19:48.288Z,58.27
2023-03-31T07:22:51.417Z,56.26
2023-03-31T07:25:54.999Z,53.22
2023-03-31T07:29:05.814Z,54.50
2023-03-31T07:32:10.105Z,52.63
2023-03-31T07:35:13.606Z,54.35
2023-03-31T07:38:16.658Z,55.22
2023-03-31T07:41:21.834Z,56.12
2023-03-31T07:44:24.830Z,55.53
2023-03-31T07:47:28.566Z,51.14
2023-03-31T07:50:31.573Z,46.18
2023-03-31T07:53:37.278Z,41.72
2023-03-31T07:56:40.660Z,40.16
2023-03-31T07:59:48.828Z,38.31
2023-03-31T08:02:53.073Z,36.90
2023-03-31T08:05:56.661Z,35.44
2023-03-31T08:09:01.916Z,38.29
2023-03-31T08:12:06.868Z,42.87
2023-03-31T08:15:11.415Z,41.41
2023-03-31T08:18:14.801Z,37.28
2023-03-31T08:21:23.014Z,36.38
2023-03-31T08:24:27.312Z,33.18
2023-03-31T08:27:43.541Z,33.96
2023-03-31T08:30:53.553Z,35.45
2023-03-31T08:33:57.743Z,33.99
2023-03-31T08:37:01.229Z,34.71
2023-03-31T08:40:06.041Z,34.46
2023-03-31T08:43:43.505Z,32.71
2023-03-31T08:47:18.364Z,32.84
2023-03-31T08:50:25.772Z,31.95
2023-03-31T08:53:39.632Z,30.92
2023-03-31T08:56:47.588Z,32.78
2023-03-31T08:59:51.508Z,31.48
2023-03-31T09:03:16.820Z,34.88
2023-03-31T09:06:34.931Z,35.56
2023-03-31T09:10:20.891Z,36.00
2023-03-31T09:13:42.415Z,33.87
2023-03-31T09:16:45.577Z,34.17
2023-03-31T09:19:57.154Z,30.76
2023-03-31T09:23:29.866Z,29.73
2023-03-31T09:26:39.515Z,28.90
2023-03-31T09:30:04.237Z,29.29
2023-03-31T09:33:12.718Z,29.47
2023-03-31T09:36:22.617Z,32.38
2023-03-31T09:39:26.089Z,29.61
2023-03-31T09:42:29.034Z,28.97
2023-03-31T09:45:34.405Z,28.40
2023-03-31T09:48:39.584Z,29.39
2023-03-31T09:52:19.125Z,29.03
2023-03-31T09:55:43.298Z,29.11
2023-03-31T09:58:49.037Z,29.82
2023-03-31T10:01:54.132Z,28.54
2023-03-31T10:04:57.124Z,28.22
2023-03-31T10:08:15.193Z,28.32
2023-03-31T10:11:18.700Z,28.38
2023-03-31T10:14:45.892Z,27.11
2023-03-31T10:20:59.444Z,26.25
2023-03-31T10:24:09.607Z,25.71
2023-03-31T10:27:30.553Z,25.68
2023-03-31T10:30:38.249Z,24.51
2023-03-31T10:33:46.544Z,26.46
2023-03-31T10:36:52.147Z,26.07
2023-03-31T10:40:06.950Z,24.07
2023-03-31T10:43:18.618Z,25.08
2023-03-31T10:46:39.375Z,24.85
2023-03-31T10:49:44.883Z,22.67
2023-03-31T10:52:49.302Z,23.03
2023-03-31T10:56:44.769Z,23.46
2023-03-31T10:59:54.465Z,25.44
2023-03-31T11:03:15.697Z,25.05
2023-03-31T11:06:32.064Z,26.29
2023-03-31T11:09:50.104Z,26.85
2023-03-31T11:13:05.929Z,24.24
2023-03-31T11:16:08.870Z,26.68
2023-03-31T11:19:34.810Z,27.76
2023-03-31T11:22:55.164Z,26.04
2023-03-31T11:26:13.886Z,23.70
2023-03-31T11:29:32.013Z,22.21
2023-03-31T11:33:03.228Z,20.92
2023-03-31T11:36:29.170Z,19.85
2023-03-31T11:40:08.224Z,24.01
2023-03-31T11:43:36.675Z,22.95
2023-03-31T11:46:46.462Z,24.17
2023-03-31T11:49:55.694Z,25.27
2023-03-31T11:53:27.612Z,23.74
2023-03-31T11:56:37.949Z,23.09
2023-03-31T11:59:46.978Z,23.12
2023-03-31T12:03:41.701Z,24.20
2023-03-31T12:06:47.582Z,23.73
2023-03-31T12:10:23.295Z,22.77
2023-03-31T12:13:41.256Z,22.77
2023-03-31T12:16:48.735Z,22.72
2023-03-31T12:19:59.175Z,22.23
2023-03-31T12:23:05.921Z,20.15
2023-03-31T12:26:46.128Z,22.01
2023-03-31T12:29:59.618Z,20.11
2023-03-31T12:33:08.013Z,22.64
2023-03-31T12:36:42.126Z,22.17
2023-03-31T12:40:16.766Z,21.77
2023-03-31T12:43:46.529Z,21.95
2023-03-31T12:47:17.793Z,24.63
2023-03-31T12:50:35.871Z,23.00
2023-03-31T12:54:03.626Z,21.51
2023-03-31T12:57:09.449Z,21.90
2023-03-31T13:00:26.217Z,24.62
2023-03-31T13:03:35.570Z,23.84
2023-03-31T13:06:38.532Z,23.58
2023-03-31T13:09:48.503Z,23.78
2023-03-31T13:13:01.283Z,22.52
2023-03-31T13:16:05.202Z,24.57
2023-03-31T13:19:11.019Z,27.61
2023-03-31T13:22:50.511Z,23.96
2023-03-31T13:25:55.760Z,24.57
2023-03-31T13:29:17.655Z,27.70
2023-03-31T13:32:27.825Z,27.18
2023-03-31T13:35:34.221Z,28.21
2023-03-31T13:38:45.808Z,29.93
2023-03-31T13:42:08.035Z,31.12
2023-03-31T13:45:43.220Z,33.10
2023-03-31T13:48:55.289Z,32.36
2023-03-31T13:52:09.627Z,30.65
2023-03-31T13:55:29.019Z,32.00
2023-03-31T13:59:16.939Z,31.94
2023-03-31T14:02:28.482Z,33.02
2023-03-31T14:05:39.980Z,34.24
2023-03-31T14:08:51.976Z,34.72
2023-03-31T14:11:55.025Z,34.36
2023-03-31T14:15:18.614Z,34.78
2023-03-31T14:18:27.399Z,34.90
2023-03-31T14:21:57.381Z,35.98
2023-03-31T14:25:33.698Z,35.78
2023-03-31T14:29:20.757Z,35.41
2023-03-31T14:32:39.819Z,33.60
2023-03-31T14:36:02.267Z,34.40
2023-03-31T14:39:09.497Z,34.46
2023-03-31T14:42:18.813Z,35.04
2023-03-31T14:45:26.763Z,35.15
2023-03-31T14:48:33.360Z,35.94
2023-03-31T14:51:36.458Z,35.64
2023-03-31T14:54:41.374Z,36.29
2023-03-31T14:57:47.600Z,37.20
2023-03-31T15:00:50.970Z,36.91
2023-03-31T15:03:55.622Z,37.15
2023-03-31T15:07:02.681Z,37.61
2023-03-31T15:10:07.043Z,38.56
2023-03-31T15:13:15.611Z,39.42
2023-03-31T15:16:30.675Z,40.19
2023-03-31T15:19:36.996Z,40.58
2023-03-31T15:22:40.325Z,41.39
2023-03-31T15:25:44.532Z,41.50
2023-03-31T15:28:59.177Z,41.63
2023-03-31T15:32:03.635Z,41.98
2023-03-31T15:38:27.694Z,42.26
2023-03-31T15:41:32.118Z,42.68
2023-03-31T15:44:39.094Z,43.09
2023-03-31T15:47:55.005Z,44.18
2023-03-31T15:51:06.634Z,44.09
2023-03-31T15:54:45.144Z,44.88
2023-03-31T15:57:47.996Z,44.87
2023-03-31T16:01:02.474Z,45.04
2023-03-31T16:04:12.246Z,45.16
2023-03-31T16:07:29.150Z,44.08
2023-03-31T16:10:35.350Z,41.48
2023-03-31T16:13:42.137Z,42.47
2023-03-31T16:16:56.624Z,42.65
2023-03-31T16:20:23.035Z,42.67
2023-03-31T16:23:30.115Z,42.83
2023-03-31T16:26:33.810Z,43.50
2023-03-31T16:29:38.545Z,44.28
2023-03-31T16:33:02.189Z,45.59
2023-03-31T16:36:05.783Z,46.27
2023-03-31T16:39:09.305Z,47.14
2023-03-31T16:42:12.224Z,47.89
2023-03-31T16:45:15.179Z,48.44
2023-03-31T16:48:28.395Z,49.55
2023-03-31T16:51:31.353Z,49.99
2023-03-31T16:54:34.547Z,50.36
2023-03-31T16:57:37.343Z,50.50
2023-03-31T17:00:40.732Z,50.50
2023-03-31T17:03:44.011Z,51.24
2023-03-31T17:09:50.586Z,51.43
2023-03-31T17:12:53.553Z,51.63
2023-03-31T17:16:04.614Z,51.75
2023-03-31T17:19:17.507Z,52.35
2023-03-31T17:22:20.472Z,52.49
2023-03-31T17:25:23.631Z,52.69
2023-03-31T17:28:26.610Z,52.53
2023-03-31T17:31:30.757Z,52.94
2023-03-31T17:34:33.524Z,52.66
2023-03-31T17:37:37.492Z,52.72
2023-03-31T17:40:40.996Z,53.10
2023-03-31T17:43:49.157Z,53.09
2023-03-31T17:46:52.627Z,53.48
2023-03-31T17:49:55.593Z,53.66
2023-03-31T17:52:58.850Z,53.70
2023-03-31T17:56:03.383Z,54.01
2023-03-31T17:59:06.730Z,54.18
2023-03-31T18:02:13.253Z,54.44
2023-03-31T18:05:18.201Z,54.63
2023-03-31T18:08:22.073Z,54.61
2023-03-31T18:11:24.982Z,54.76
2023-03-31T18:14:29.030Z,55.08
2023-03-31T18:17:31.959Z,55.30
2023-03-31T18:20:35.049Z,55.36
2023-03-31T18:23:39.041Z,55.77
2023-03-31T18:26:41.868Z,55.55
2023-03-31T18:29:44.867Z,55.77
2023-03-31T18:32:48.227Z,55.69
2023-03-31T18:35:51.300Z,55.85
2023-03-31T18:38:55.550Z,56.09
2023-03-31T18:41:59.728Z,56.01
2023-03-31T18:45:03.277Z,55.86
2023-03-31T18:48:06.513Z,56.10
2023-03-31T18:51:09.825Z,56.39
2023-03-31T18:54:12.920Z,56.61
2023-03-31T18:57:16.353Z,56.91
2023-03-31T19:00:20.719Z,57.10
2023-03-31T19:03:24.373Z,57.57
2023-03-31T19:06:27.990Z,58.20
2023-03-31T19:09:31.209Z,58.10
2023-03-31T19:12:34.671Z,58.20
2023-03-31T19:15:37.571Z,58.38
2023-03-31T19:18:41.247Z,58.48
2023-03-31T19:21:45.021Z,58.85
2023-03-31T19:24:48.120Z,59.75
2023-03-31T19:27:51.918Z,61.45
2023-03-31T19:30:56.890Z,62.08
2023-03-31T19:34:01.448Z,63.60
2023-03-31T19:37:05.155Z,64.92
2023-03-31T19:40:10.252Z,63.94
2023-03-31T19:43:23.696Z,63.98
2023-03-31T19:46:26.920Z,65.83
2023-03-31T19:49:30.112Z,66.45
2023-03-31T19:52:33.269Z,65.75
2023-03-31T19:55:37.766Z,65.69
2023-03-31T19:58:41.515Z,66.56
2023-03-31T20:01:44.840Z,67.09
2023-03-31T20:04:48.672Z,67.50
2023-03-31T20:07:51.927Z,67.67
2023-03-31T20:11:04.120Z,67.12
2023-03-31T20:14:07.681Z,67.81
2023-03-31T20:17:12.992Z,67.50
2023-03-31T20:20:16.161Z,70.59
2023-03-31T20:23:18.923Z,70.97
2023-03-31T20:26:25.314Z,71.64
2023-03-31T20:29:28.711Z,71.34
2023-03-31T20:32:32.533Z,74.23
2023-03-31T20:35:37.796Z,73.58
2023-03-31T20:38:43.189Z,72.95
2023-03-31T20:41:47.525Z,73.60
2023-03-31T20:44:50.704Z,74.13
2023-03-31T20:47:53.554Z,76.08
2023-03-31T20:50:57.653Z,77.69
2023-03-31T20:54:02.033Z,75.97
2023-03-31T20:57:07.361Z,76.27
2023-03-31T21:00:11.416Z,76.46
2023-03-31T21:03:14.626Z,76.69
2023-03-31T21:06:18.770Z,76.70
2023-03-31T21:09:21.993Z,77.53
2023-03-31T21:12:25.212Z,78.23
2023-03-31T21:15:27.970Z,78.55
2023-03-31T21:18:32.950Z,78.70
2023-03-31T21:21:36.228Z,79.33
2023-03-31T21:24:39.023Z,77.87
2023-03-31T21:27:41.992Z,79.13
2023-03-31T21:30:56.468Z,78.55
2023-03-31T21:34:01.512Z,78.48
2023-03-31T21:37:04.960Z,79.22
2023-03-31T21:40:08.666Z,80.78
2023-03-31T21:43:12.386Z,81.86
2023-03-31T21:46:17.258Z,82.73
2023-03-31T21:49:20.187Z,83.18
2023-03-31T21:52:23.107Z,84.42
2023-03-31T21:55:25.918Z,84.17
2023-03-31T21:58:30.007Z,85.38
2023-03-31T22:01:32.898Z,85.80
2023-03-31T22:04:36.026Z,86.22
2023-03-31T22:07:38.770Z,86.20
2023-03-31T22:10:41.495Z,87.82
2023-03-31T22:13:44.704Z,86.95
2023-03-31T22:16:47.888Z,87.88
2023-03-31T22:19:50.784Z,88.13
2023-03-31T22:22:53.687Z,89.46
2023-03-31T22:25:56.416Z,89.76
2023-03-31T22:28:59.259Z,90.15
2023-03-31T22:32:02.218Z,89.27
2023-03-31T22:35:05.529Z,90.82
2023-03-31T22:38:08.793Z,90.58
2023-03-31T22:41:11.906Z,89.98
2023-03-31T22:44:15.676Z,89.41
2023-03-31T22:47:18.554Z,89.81
2023-03-31T22:50:21.785Z,89.02
2023-03-31T22:53:25.042Z,89.04
2023-03-31T22:56:28.439Z,88.68
2023-03-31T22:59:31.588Z,88.95
2023-03-31T23:02:34.386Z,88.22
2023-03-31T23:05:37.386Z,88.46
2023-03-31T23:08:41.173Z,88.88
2023-03-31T23:11:45.161Z,88.47
2023-03-31T23:14:48.097Z,88.33
2023-03-31T23:17:50.946Z,88.20
2023-03-31T23:20:53.735Z,88.37
2023-03-31T23:23:59.762Z,88.82
2023-03-31T23:27:02.481Z,89.35
2023-03-31T23:30:06.389Z,88.55
2023-03-31T23:33:09.240Z,89.33
2023-03-31T23:36:17.249Z,88.81
2023-03-31T23:39:20.087Z,88.87
2023-03-31T23:42:23.026Z,89.68
2023-03-31T23:45:25.896Z,90.80
2023-03-31T23:48:28.604Z,90.93
2023-03-31T23:51:31.862Z,92.65
2023-03-31T23:54:34.982Z,92.98
2023-03-31T23:57:37.767Z,93.21
